sensor_id;sensor_type;location;lat;lon;timestamp;pressure;altitude;pressure_sealevel;temperature;humidity
20710;BME280;10516;51.518;9.864;2023-03-01T00:01:03;100151.78;;;0.32;69.09
20710;BME280;10516;51.518;9.864;2023-03-01T00:03:28;100154.06;;;0.35;68.84
20710;BME280;10516;51.518;9.864;2023-03-01T00:05:53;100146.41;;;0.42;68.42
20710;BME280;10516;51.518;9.864;2023-03-01T00:08:19;100145.28;;;0.44;68.23
20710;BME280;10516;51.518;9.864;2023-03-01T00:10:44;100136.03;;;0.32;68.50
20710;BME280;10516;51.518;9.864;2023-03-01T00:13:09;100134.91;;;0.35;68.92
20710;BME280;10516;51.518;9.864;2023-03-01T00:15:37;100137.81;;;0.32;68.74
20710;BME280;10516;51.518;9.864;2023-03-01T00:18:02;100141.28;;;0.32;68.31
20710;BME280;10516;51.518;9.864;2023-03-01T00:20:28;100147.34;;;0.15;69.28
20710;BME280;10516;51.518;9.864;2023-03-01T00:22:53;100141.13;;;0.34;68.89
20710;BME280;10516;51.518;9.864;2023-03-01T00:25:18;100138.56;;;-0.11;69.26
20710;BME280;10516;51.518;9.864;2023-03-01T00:27:43;100141.13;;;0.16;68.95
20710;BME280;10516;51.518;9.864;2023-03-01T00:30:09;100142.25;;;0.14;69.09
20710;BME280;10516;51.518;9.864;2023-03-01T00:32:34;100144.56;;;0.17;69.08
20710;BME280;10516;51.518;9.864;2023-03-01T00:34:59;100145.31;;;0.27;68.78
20710;BME280;10516;51.518;9.864;2023-03-01T00:37:25;100142.84;;;0.25;68.73
20710;BME280;10516;51.518;9.864;2023-03-01T00:39:50;100150.03;;;-0.12;69.80
20710;BME280;10516;51.518;9.864;2023-03-01T00:42:16;100150.75;;;-0.20;69.93
20710;BME280;10516;51.518;9.864;2023-03-01T00:44:41;100152.06;;;0.12;68.67
20710;BME280;10516;51.518;9.864;2023-03-01T00:47:06;100147.88;;;0.19;68.42
20710;BME280;10516;51.518;9.864;2023-03-01T00:49:32;100158.94;;;-0.77;69.20
20710;BME280;10516;51.518;9.864;2023-03-01T00:51:57;100154.41;;;-0.30;69.48
20710;BME280;10516;51.518;9.864;2023-03-01T00:54:22;100152.44;;;-0.01;69.54
20710;BME280;10516;51.518;9.864;2023-03-01T00:56:48;100152.59;;;-0.03;69.26
20710;BME280;10516;51.518;9.864;2023-03-01T00:59:13;100161.00;;;0.01;69.36
20710;BME280;10516;51.518;9.864;2023-03-01T01:01:38;100153.78;;;0.03;69.18
20710;BME280;10516;51.518;9.864;2023-03-01T01:04:05;100150.88;;;0.06;69.02
20710;BME280;10516;51.518;9.864;2023-03-01T01:06:32;100147.47;;;-0.04;68.80
20710;BME280;10516;51.518;9.864;2023-03-01T01:08:57;100145.09;;;0.03;68.66
20710;BME280;10516;51.518;9.864;2023-03-01T01:11:23;100132.41;;;-0.02;68.92
20710;BME280;10516;51.518;9.864;2023-03-01T01:13:49;100126.88;;;0.01;68.37
20710;BME280;10516;51.518;9.864;2023-03-01T01:16:15;100119.56;;;-0.40;67.60
20710;BME280;10516;51.518;9.864;2023-03-01T01:18:41;100118.81;;;-0.50;69.99
20710;BME280;10516;51.518;9.864;2023-03-01T01:21:07;100124.13;;;-0.69;70.22
20710;BME280;10516;51.518;9.864;2023-03-01T01:23:32;100115.91;;;-0.74;70.83
20710;BME280;10516;51.518;9.864;2023-03-01T01:26:02;100121.72;;;-0.53;70.44
20710;BME280;10516;51.518;9.864;2023-03-01T01:28:28;100119.06;;;-1.83;71.72
20710;BME280;10516;51.518;9.864;2023-03-01T01:30:53;100120.72;;;-0.70;71.12
20710;BME280;10516;51.518;9.864;2023-03-01T01:33:18;100114.88;;;-0.64;70.54
20710;BME280;10516;51.518;9.864;2023-03-01T01:35:44;100120.41;;;-1.40;70.26
20710;BME280;10516;51.518;9.864;2023-03-01T01:38:10;100116.59;;;-1.09;71.92
20710;BME280;10516;51.518;9.864;2023-03-01T01:40:42;100120.72;;;-1.91;72.19
20710;BME280;10516;51.518;9.864;2023-03-01T01:43:09;100117.13;;;-1.81;72.82
20710;BME280;10516;51.518;9.864;2023-03-01T01:45:41;100112.56;;;-2.27;73.77
20710;BME280;10516;51.518;9.864;2023-03-01T01:48:06;100110.66;;;-2.24;73.95
20710;BME280;10516;51.518;9.864;2023-03-01T01:50:35;100107.91;;;-2.23;73.61
20710;BME280;10516;51.518;9.864;2023-03-01T01:53:09;100104.44;;;-2.52;73.58
20710;BME280;10516;51.518;9.864;2023-03-01T01:55:35;100105.56;;;-1.88;75.55
20710;BME280;10516;51.518;9.864;2023-03-01T01:58:02;100094.06;;;-1.02;72.75
20710;BME280;10516;51.518;9.864;2023-03-01T02:00:29;100103.88;;;-0.50;70.49
20710;BME280;10516;51.518;9.864;2023-03-01T02:02:56;100094.69;;;-0.36;70.45
20710;BME280;10516;51.518;9.864;2023-03-01T02:05:25;100092.50;;;-0.41;69.28
20710;BME280;10516;51.518;9.864;2023-03-01T02:07:51;100091.09;;;-0.35;69.12
20710;BME280;10516;51.518;9.864;2023-03-01T02:10:16;100080.75;;;-0.37;69.72
20710;BME280;10516;51.518;9.864;2023-03-01T02:12:42;100076.72;;;-0.31;69.23
20710;BME280;10516;51.518;9.864;2023-03-01T02:15:07;100085.16;;;-0.20;69.26
20710;BME280;10516;51.518;9.864;2023-03-01T02:17:33;100069.59;;;-0.21;68.91
20710;BME280;10516;51.518;9.864;2023-03-01T02:20:12;100076.78;;;-0.23;69.14
20710;BME280;10516;51.518;9.864;2023-03-01T02:22:40;100075.00;;;-0.23;69.03
20710;BME280;10516;51.518;9.864;2023-03-01T02:30:33;100060.31;;;-0.16;68.75
20710;BME280;10516;51.518;9.864;2023-03-01T02:32:58;100075.28;;;-0.26;68.80
20710;BME280;10516;51.518;9.864;2023-03-01T02:35:29;100070.72;;;-0.24;68.95
20710;BME280;10516;51.518;9.864;2023-03-01T02:37:55;100064.78;;;-0.26;68.47
20710;BME280;10516;51.518;9.864;2023-03-01T02:40:22;100060.16;;;-0.32;68.98
20710;BME280;10516;51.518;9.864;2023-03-01T02:42:52;100056.34;;;-0.37;68.48
20710;BME280;10516;51.518;9.864;2023-03-01T02:45:19;100052.94;;;-0.30;68.74
20710;BME280;10516;51.518;9.864;2023-03-01T02:47:44;100054.53;;;-0.37;68.71
20710;BME280;10516;51.518;9.864;2023-03-01T02:50:45;100049.66;;;-0.32;68.60
20710;BME280;10516;51.518;9.864;2023-03-01T02:55:29;100055.34;;;-0.54;69.41
20710;BME280;10516;51.518;9.864;2023-03-01T02:57:54;100053.63;;;-0.45;69.26
20710;BME280;10516;51.518;9.864;2023-03-01T03:00:21;100051.38;;;-0.40;68.73
20710;BME280;10516;51.518;9.864;2023-03-01T03:02:51;100054.97;;;-0.41;68.37
20710;BME280;10516;51.518;9.864;2023-03-01T03:05:18;100055.13;;;-0.43;68.96
20710;BME280;10516;51.518;9.864;2023-03-01T03:07:45;100053.06;;;-0.94;68.78
20710;BME280;10516;51.518;9.864;2023-03-01T03:10:22;100062.53;;;-0.56;69.52
20710;BME280;10516;51.518;9.864;2023-03-01T03:12:52;100061.94;;;-0.50;68.93
20710;BME280;10516;51.518;9.864;2023-03-01T03:15:18;100058.03;;;-0.46;68.54
20710;BME280;10516;51.518;9.864;2023-03-01T03:17:45;100051.44;;;-0.50;68.73
20710;BME280;10516;51.518;9.864;2023-03-01T03:20:11;100048.97;;;-0.51;68.93
20710;BME280;10516;51.518;9.864;2023-03-01T03:22:39;100047.31;;;-0.52;68.52
20710;BME280;10516;51.518;9.864;2023-03-01T03:25:05;100050.41;;;-0.57;69.04
20710;BME280;10516;51.518;9.864;2023-03-01T03:27:35;100041.84;;;-0.59;68.66
20710;BME280;10516;51.518;9.864;2023-03-01T03:30:00;100044.47;;;-0.59;68.50
20710;BME280;10516;51.518;9.864;2023-03-01T03:32:25;100040.44;;;-0.53;69.00
20710;BME280;10516;51.518;9.864;2023-03-01T03:34:51;100029.44;;;-0.57;68.37
20710;BME280;10516;51.518;9.864;2023-03-01T03:37:16;100029.13;;;-0.54;68.41
20710;BME280;10516;51.518;9.864;2023-03-01T03:40:00;100024.69;;;-1.62;69.15
20710;BME280;10516;51.518;9.864;2023-03-01T03:42:25;100026.91;;;-1.77;71.52
20710;BME280;10516;51.518;9.864;2023-03-01T03:44:51;100030.25;;;-1.01;69.94
20710;BME280;10516;51.518;9.864;2023-03-01T03:47:16;100027.88;;;-0.95;70.09
20710;BME280;10516;51.518;9.864;2023-03-01T03:49:41;100022.44;;;-0.66;69.15
20710;BME280;10516;51.518;9.864;2023-03-01T03:52:06;100020.50;;;-0.64;69.27
20710;BME280;10516;51.518;9.864;2023-03-01T03:54:38;100024.28;;;-1.21;69.15
20710;BME280;10516;51.518;9.864;2023-03-01T03:57:04;100019.81;;;-0.84;69.08
20710;BME280;10516;51.518;9.864;2023-03-01T03:59:29;100024.06;;;-0.83;68.93
20710;BME280;10516;51.518;9.864;2023-03-01T04:01:54;100023.50;;;-1.04;68.71
20710;BME280;10516;51.518;9.864;2023-03-01T04:04:19;100017.69;;;-0.80;68.97
20710;BME280;10516;51.518;9.864;2023-03-01T04:06:44;100024.53;;;-0.69;69.40
20710;BME280;10516;51.518;9.864;2023-03-01T04:09:10;100017.06;;;-0.64;68.77
20710;BME280;10516;51.518;9.864;2023-03-01T04:11:35;100020.72;;;-0.75;68.79
20710;BME280;10516;51.518;9.864;2023-03-01T04:14:00;100029.72;;;-2.07;71.06
20710;BME280;10516;51.518;9.864;2023-03-01T04:16:25;100024.09;;;-1.46;70.58
20710;BME280;10516;51.518;9.864;2023-03-01T04:18:51;100029.88;;;-2.37;71.30
20710;BME280;10516;51.518;9.864;2023-03-01T04:21:17;100036.84;;;-2.66;72.04
20710;BME280;10516;51.518;9.864;2023-03-01T04:23:42;100047.44;;;-3.27;73.22
20710;BME280;10516;51.518;9.864;2023-03-01T04:26:08;100047.44;;;-3.27;74.54
20710;BME280;10516;51.518;9.864;2023-03-01T04:28:37;100051.22;;;-3.00;74.86
20710;BME280;10516;51.518;9.864;2023-03-01T04:31:15;100045.38;;;-1.88;74.39
20710;BME280;10516;51.518;9.864;2023-03-01T04:33:45;100049.66;;;-1.87;71.81
20710;BME280;10516;51.518;9.864;2023-03-01T04:36:11;100043.88;;;-1.25;71.63
20710;BME280;10516;51.518;9.864;2023-03-01T04:38:37;100040.75;;;-1.11;70.26
20710;BME280;10516;51.518;9.864;2023-03-01T04:41:04;100036.94;;;-1.16;70.60
20710;BME280;10516;51.518;9.864;2023-03-01T04:43:29;100035.44;;;-1.28;69.38
20710;BME280;10516;51.518;9.864;2023-03-01T04:45:54;100024.69;;;-0.98;69.52
20710;BME280;10516;51.518;9.864;2023-03-01T04:48:24;100021.91;;;-1.14;69.98
20710;BME280;10516;51.518;9.864;2023-03-01T04:50:49;100025.88;;;-1.10;69.68
20710;BME280;10516;51.518;9.864;2023-03-01T04:53:15;100025.78;;;-1.18;70.37
20710;BME280;10516;51.518;9.864;2023-03-01T04:55:40;100020.47;;;-1.73;70.50
20710;BME280;10516;51.518;9.864;2023-03-01T04:58:05;100020.31;;;-1.34;70.90
20710;BME280;10516;51.518;9.864;2023-03-01T05:00:30;100021.56;;;-1.02;69.90
20710;BME280;10516;51.518;9.864;2023-03-01T05:02:57;100024.75;;;-1.91;70.49
20710;BME280;10516;51.518;9.864;2023-03-01T05:05:35;100009.78;;;-2.08;71.15
20710;BME280;10516;51.518;9.864;2023-03-01T05:08:02;100017.91;;;-2.30;72.49
20710;BME280;10516;51.518;9.864;2023-03-01T05:10:29;100014.75;;;-2.24;72.48
20710;BME280;10516;51.518;9.864;2023-03-01T05:12:55;100033.19;;;-2.54;71.85
20710;BME280;10516;51.518;9.864;2023-03-01T05:15:22;100033.31;;;-2.56;73.45
20710;BME280;10516;51.518;9.864;2023-03-01T05:17:50;100024.13;;;-2.41;72.17
20710;BME280;10516;51.518;9.864;2023-03-01T05:20:16;100027.69;;;-2.03;73.02
20710;BME280;10516;51.518;9.864;2023-03-01T05:22:41;100027.91;;;-1.31;70.39
20710;BME280;10516;51.518;9.864;2023-03-01T05:25:06;100018.88;;;-2.12;70.58
20710;BME280;10516;51.518;9.864;2023-03-01T05:27:32;100021.69;;;-1.77;70.33
20710;BME280;10516;51.518;9.864;2023-03-01T05:29:57;100016.44;;;-1.58;71.07
20710;BME280;10516;51.518;9.864;2023-03-01T05:32:23;100015.00;;;-1.15;69.79
20710;BME280;10516;51.518;9.864;2023-03-01T05:34:48;100015.63;;;-1.04;69.80
20710;BME280;10516;51.518;9.864;2023-03-01T05:37:13;100020.44;;;-0.99;69.54
20710;BME280;10516;51.518;9.864;2023-03-01T05:39:39;100014.53;;;-1.01;68.82
20710;BME280;10516;51.518;9.864;2023-03-01T05:42:04;100016.31;;;-1.02;68.88
20710;BME280;10516;51.518;9.864;2023-03-01T05:44:30;100018.09;;;-1.02;68.79
20710;BME280;10516;51.518;9.864;2023-03-01T05:46:55;100015.31;;;-1.18;68.67
20710;BME280;10516;51.518;9.864;2023-03-01T05:49:21;100016.84;;;-1.25;69.23
20710;BME280;10516;51.518;9.864;2023-03-01T05:51:51;100012.34;;;-1.06;68.62
20710;BME280;10516;51.518;9.864;2023-03-01T05:54:17;100012.50;;;-1.07;68.44
20710;BME280;10516;51.518;9.864;2023-03-01T05:56:42;100014.53;;;-1.01;68.52
20710;BME280;10516;51.518;9.864;2023-03-01T05:59:08;100008.72;;;-1.05;68.16
20710;BME280;10516;51.518;9.864;2023-03-01T06:01:34;100003.59;;;-0.97;67.98
20710;BME280;10516;51.518;9.864;2023-03-01T06:03:59;100009.03;;;-1.08;68.46
20710;BME280;10516;51.518;9.864;2023-03-01T06:06:25;99996.13;;;-1.19;68.40
20710;BME280;10516;51.518;9.864;2023-03-01T06:08:51;100007.22;;;-1.34;69.08
20710;BME280;10516;51.518;9.864;2023-03-01T06:11:16;100005.06;;;-1.12;68.40
20710;BME280;10516;51.518;9.864;2023-03-01T06:13:42;100009.63;;;-1.14;68.91
20710;BME280;10516;51.518;9.864;2023-03-01T06:16:07;100014.06;;;-1.24;68.80
20710;BME280;10516;51.518;9.864;2023-03-01T06:18:33;100014.72;;;-2.05;70.17
20710;BME280;10516;51.518;9.864;2023-03-01T06:20:59;100017.34;;;-1.95;70.33
20710;BME280;10516;51.518;9.864;2023-03-01T06:23:24;100014.94;;;-1.33;69.21
20710;BME280;10516;51.518;9.864;2023-03-01T06:25:50;100027.03;;;-1.22;69.28
20710;BME280;10516;51.518;9.864;2023-03-01T06:28:15;100019.03;;;-1.21;68.64
20710;BME280;10516;51.518;9.864;2023-03-01T06:30:41;100014.91;;;-1.23;68.37
20710;BME280;10516;51.518;9.864;2023-03-01T06:33:06;100013.03;;;-1.87;70.56
20710;BME280;10516;51.518;9.864;2023-03-01T06:35:31;100017.78;;;-2.48;70.54
20710;BME280;10516;51.518;9.864;2023-03-01T06:37:57;100009.41;;;-3.20;72.45
20710;BME280;10516;51.518;9.864;2023-03-01T06:40:23;100017.06;;;-2.59;73.35
20710;BME280;10516;51.518;9.864;2023-03-01T06:42:49;100009.28;;;-1.65;70.84
20710;BME280;10516;51.518;9.864;2023-03-01T06:45:14;99997.03;;;-1.37;70.50
20710;BME280;10516;51.518;9.864;2023-03-01T06:47:40;100009.16;;;-1.27;69.16
20710;BME280;10516;51.518;9.864;2023-03-01T06:50:05;100001.34;;;-1.09;68.50
20710;BME280;10516;51.518;9.864;2023-03-01T06:52:31;100004.44;;;-2.35;70.82
20710;BME280;10516;51.518;9.864;2023-03-01T06:54:58;100014.91;;;-2.45;71.62
20710;BME280;10516;51.518;9.864;2023-03-01T06:57:24;100009.59;;;-3.02;73.32
20710;BME280;10516;51.518;9.864;2023-03-01T06:59:49;99997.78;;;-2.87;74.34
20710;BME280;10516;51.518;9.864;2023-03-01T07:02:15;100004.84;;;-2.30;74.00
20710;BME280;10516;51.518;9.864;2023-03-01T07:04:40;100018.16;;;-2.81;73.82
20710;BME280;10516;51.518;9.864;2023-03-01T07:07:05;100017.66;;;-2.56;74.56
20710;BME280;10516;51.518;9.864;2023-03-01T07:09:31;100007.38;;;-3.07;75.08
20710;BME280;10516;51.518;9.864;2023-03-01T07:11:56;100016.25;;;-3.19;75.92
20710;BME280;10516;51.518;9.864;2023-03-01T07:14:22;100015.66;;;-3.41;76.36
20710;BME280;10516;51.518;9.864;2023-03-01T07:16:49;100017.13;;;-3.48;78.17
20710;BME280;10516;51.518;9.864;2023-03-01T07:19:14;100020.78;;;-2.71;77.19
20710;BME280;10516;51.518;9.864;2023-03-01T07:21:39;100008.25;;;-2.77;75.90
20710;BME280;10516;51.518;9.864;2023-03-01T07:24:06;100014.97;;;-3.64;77.81
20710;BME280;10516;51.518;9.864;2023-03-01T07:26:31;100011.84;;;-3.58;79.26
20710;BME280;10516;51.518;9.864;2023-03-01T07:28:58;100014.22;;;-3.15;78.95
20710;BME280;10516;51.518;9.864;2023-03-01T07:31:23;100010.16;;;-3.68;80.30
20710;BME280;10516;51.518;9.864;2023-03-01T07:33:49;100000.25;;;-3.74;80.35
20710;BME280;10516;51.518;9.864;2023-03-01T07:36:14;100004.69;;;-3.86;81.02
20710;BME280;10516;51.518;9.864;2023-03-01T07:38:39;99998.25;;;-3.82;81.70
20710;BME280;10516;51.518;9.864;2023-03-01T07:41:04;100005.41;;;-4.25;82.54
20710;BME280;10516;51.518;9.864;2023-03-01T07:43:30;100005.28;;;-4.03;82.56
20710;BME280;10516;51.518;9.864;2023-03-01T07:46:00;100004.66;;;-3.96;82.42
20710;BME280;10516;51.518;9.864;2023-03-01T07:48:25;100000.91;;;-4.03;82.59
20710;BME280;10516;51.518;9.864;2023-03-01T07:50:50;99999.88;;;-3.91;82.95
20710;BME280;10516;51.518;9.864;2023-03-01T07:53:16;100003.53;;;-3.52;82.87
20710;BME280;10516;51.518;9.864;2023-03-01T07:55:41;99998.94;;;-3.90;82.64
20710;BME280;10516;51.518;9.864;2023-03-01T07:58:06;99996.56;;;-3.72;82.70
20710;BME280;10516;51.518;9.864;2023-03-01T08:00:32;99998.22;;;-2.72;80.96
20710;BME280;10516;51.518;9.864;2023-03-01T08:03:00;100003.19;;;-3.19;81.56
20710;BME280;10516;51.518;9.864;2023-03-01T08:05:26;100005.59;;;-2.96;81.57
20710;BME280;10516;51.518;9.864;2023-03-01T08:07:51;100002.53;;;-3.51;81.36
20710;BME280;10516;51.518;9.864;2023-03-01T08:10:16;99999.09;;;-3.61;83.29
20710;BME280;10516;51.518;9.864;2023-03-01T08:12:42;100003.06;;;-3.27;82.21
20710;BME280;10516;51.518;9.864;2023-03-01T08:15:07;99996.25;;;-3.09;82.17
20710;BME280;10516;51.518;9.864;2023-03-01T08:17:33;99989.16;;;-2.68;81.73
20710;BME280;10516;51.518;9.864;2023-03-01T08:19:58;99980.41;;;-1.83;77.51
20710;BME280;10516;51.518;9.864;2023-03-01T08:22:23;99977.25;;;-1.49;76.53
20710;BME280;10516;51.518;9.864;2023-03-01T08:24:48;99974.16;;;-1.72;77.26
20710;BME280;10516;51.518;9.864;2023-03-01T08:27:14;99970.72;;;-1.36;75.17
20710;BME280;10516;51.518;9.864;2023-03-01T08:29:40;99973.13;;;-1.89;76.45
20710;BME280;10516;51.518;9.864;2023-03-01T08:32:05;99977.75;;;-1.36;76.27
20710;BME280;10516;51.518;9.864;2023-03-01T08:34:30;99983.25;;;-0.85;73.85
20710;BME280;10516;51.518;9.864;2023-03-01T08:36:56;99978.16;;;-1.31;74.40
20710;BME280;10516;51.518;9.864;2023-03-01T08:39:22;99987.97;;;-1.43;75.41
20710;BME280;10516;51.518;9.864;2023-03-01T08:41:47;99985.88;;;-1.76;77.09
20710;BME280;10516;51.518;9.864;2023-03-01T08:44:13;99977.66;;;-1.17;74.64
20710;BME280;10516;51.518;9.864;2023-03-01T08:46:39;99977.75;;;-1.36;75.56
20710;BME280;10516;51.518;9.864;2023-03-01T08:49:12;99975.16;;;-1.09;75.87
20710;BME280;10516;51.518;9.864;2023-03-01T08:51:38;99963.34;;;-0.78;74.14
20710;BME280;10516;51.518;9.864;2023-03-01T08:54:04;99970.16;;;-0.67;72.98
20710;BME280;10516;51.518;9.864;2023-03-01T08:56:29;99973.53;;;-1.47;75.53
20710;BME280;10516;51.518;9.864;2023-03-01T08:58:54;99977.41;;;-1.51;76.49
20710;BME280;10516;51.518;9.864;2023-03-01T09:01:20;99968.25;;;-1.10;75.13
20710;BME280;10516;51.518;9.864;2023-03-01T09:03:45;99967.72;;;-1.78;76.22
20710;BME280;10516;51.518;9.864;2023-03-01T09:06:11;99964.06;;;-2.04;78.18
20710;BME280;10516;51.518;9.864;2023-03-01T09:08:42;99957.19;;;-1.68;78.21
20710;BME280;10516;51.518;9.864;2023-03-01T09:11:09;99957.44;;;-1.25;77.01
20710;BME280;10516;51.518;9.864;2023-03-01T09:13:34;99961.97;;;-1.54;76.77
20710;BME280;10516;51.518;9.864;2023-03-01T09:16:00;99954.50;;;-1.76;78.01
20710;BME280;10516;51.518;9.864;2023-03-01T09:18:26;99962.59;;;-1.70;76.01
20710;BME280;10516;51.518;9.864;2023-03-01T09:20:51;99954.91;;;-1.81;76.59
20710;BME280;10516;51.518;9.864;2023-03-01T09:23:16;99956.28;;;-1.77;75.63
20710;BME280;10516;51.518;9.864;2023-03-01T09:25:41;99958.16;;;-1.60;75.02
20710;BME280;10516;51.518;9.864;2023-03-01T09:28:07;99955.75;;;-1.16;75.74
20710;BME280;10516;51.518;9.864;2023-03-01T09:30:32;99951.38;;;-1.53;74.67
20710;BME280;10516;51.518;9.864;2023-03-01T09:32:57;99947.56;;;-1.68;74.99
20710;BME280;10516;51.518;9.864;2023-03-01T09:35:23;99950.84;;;-1.56;75.23
20710;BME280;10516;51.518;9.864;2023-03-01T09:37:48;99953.22;;;-1.35;74.41
20710;BME280;10516;51.518;9.864;2023-03-01T09:40:16;99955.63;;;-1.24;74.21
20710;BME280;10516;51.518;9.864;2023-03-01T09:42:46;99949.88;;;-1.28;73.69
20710;BME280;10516;51.518;9.864;2023-03-01T09:45:33;99947.25;;;-0.83;73.77
20710;BME280;10516;51.518;9.864;2023-03-01T09:47:59;99951.06;;;-0.95;73.97
20710;BME280;10516;51.518;9.864;2023-03-01T09:50:26;99951.06;;;-0.95;74.00
20710;BME280;10516;51.518;9.864;2023-03-01T09:55:20;99950.63;;;-1.18;73.97
20710;BME280;10516;51.518;9.864;2023-03-01T09:57:53;99947.06;;;-1.17;73.20
20710;BME280;10516;51.518;9.864;2023-03-01T10:02:52;99954.41;;;-0.85;73.34
20710;BME280;10516;51.518;9.864;2023-03-01T10:12:59;99938.03;;;-0.52;71.26
20710;BME280;10516;51.518;9.864;2023-03-01T10:15:37;99939.00;;;-0.35;72.33
20710;BME280;10516;51.518;9.864;2023-03-01T10:18:06;99935.13;;;-0.49;70.43
20710;BME280;10516;51.518;9.864;2023-03-01T10:23:04;99916.53;;;-0.38;70.58
20710;BME280;10516;51.518;9.864;2023-03-01T10:27:55;99919.75;;;0.08;73.20
20710;BME280;10516;51.518;9.864;2023-03-01T10:30:35;99917.00;;;-0.17;69.17
20710;BME280;10516;51.518;9.864;2023-03-01T10:33:03;99910.38;;;-0.03;71.01
20710;BME280;10516;51.518;9.864;2023-03-01T10:35:34;99907.69;;;0.15;70.55
20710;BME280;10516;51.518;9.864;2023-03-01T10:38:06;99905.50;;;0.10;70.98
20710;BME280;10516;51.518;9.864;2023-03-01T10:40:32;99900.03;;;0.29;71.00
20710;BME280;10516;51.518;9.864;2023-03-01T10:42:58;99905.94;;;-0.03;67.42
20710;BME280;10516;51.518;9.864;2023-03-01T10:48:03;99897.47;;;0.12;67.79
20710;BME280;10516;51.518;9.864;2023-03-01T10:50:28;99892.13;;;0.21;68.03
20710;BME280;10516;51.518;9.864;2023-03-01T10:53:00;99894.91;;;0.20;66.76
20710;BME280;10516;51.518;9.864;2023-03-01T10:55:29;99903.28;;;0.23;66.93
20710;BME280;10516;51.518;9.864;2023-03-01T11:00:46;99889.13;;;0.50;69.59
20710;BME280;10516;51.518;9.864;2023-03-01T11:03:13;99881.25;;;0.50;67.90
20710;BME280;10516;51.518;9.864;2023-03-01T11:05:52;99888.97;;;0.51;66.68
20710;BME280;10516;51.518;9.864;2023-03-01T11:08:31;99881.75;;;0.61;69.29
20710;BME280;10516;51.518;9.864;2023-03-01T11:11:31;99881.25;;;0.50;66.58
20710;BME280;10516;51.518;9.864;2023-03-01T11:13:54;99873.22;;;0.51;66.04
20710;BME280;10516;51.518;9.864;2023-03-01T11:16:31;99879.13;;;0.53;65.71
20710;BME280;10516;51.518;9.864;2023-03-01T11:19:13;99875.38;;;0.64;65.39
20710;BME280;10516;51.518;9.864;2023-03-01T11:24:29;99872.75;;;0.64;64.48
20710;BME280;10516;51.518;9.864;2023-03-01T11:26:55;99869.50;;;0.78;64.85
20710;BME280;10516;51.518;9.864;2023-03-01T11:29:40;99878.06;;;0.80;65.72
20710;BME280;10516;51.518;9.864;2023-03-01T11:32:08;99878.41;;;0.85;64.26
20710;BME280;10516;51.518;9.864;2023-03-01T11:37:08;99863.78;;;0.99;66.86
20710;BME280;10516;51.518;9.864;2023-03-01T11:39:46;99865.63;;;1.06;65.77
20710;BME280;10516;51.518;9.864;2023-03-01T11:42:20;99867.09;;;1.25;68.05
20710;BME280;10516;51.518;9.864;2023-03-01T11:44:47;99857.56;;;1.24;67.96
20710;BME280;10516;51.518;9.864;2023-03-01T11:50:02;99857.56;;;1.24;65.89
20710;BME280;10516;51.518;9.864;2023-03-01T11:52:38;99849.03;;;1.30;62.40
20710;BME280;10516;51.518;9.864;2023-03-01T11:57:49;99845.72;;;1.36;60.09
20710;BME280;10516;51.518;9.864;2023-03-01T12:06:02;99835.38;;;1.50;61.40
20710;BME280;10516;51.518;9.864;2023-03-01T12:08:33;99828.44;;;1.66;65.39
20710;BME280;10516;51.518;9.864;2023-03-01T12:11:10;99829.41;;;1.73;59.47
20710;BME280;10516;51.518;9.864;2023-03-01T12:25:58;99819.84;;;1.88;57.74
20710;BME280;10516;51.518;9.864;2023-03-01T12:33:43;99820.78;;;2.03;58.88
20710;BME280;10516;51.518;9.864;2023-03-01T12:38:42;99813.81;;;2.10;59.83
20710;BME280;10516;51.518;9.864;2023-03-01T12:43:58;99801.16;;;2.13;61.43
20710;BME280;10516;51.518;9.864;2023-03-01T12:46:47;99804.56;;;2.22;60.99
20710;BME280;10516;51.518;9.864;2023-03-01T12:49:28;99796.84;;;2.20;60.17
20710;BME280;10516;51.518;9.864;2023-03-01T12:51:56;99788.06;;;2.28;60.68
20710;BME280;10516;51.518;9.864;2023-03-01T12:54:26;99781.13;;;2.35;60.82
20710;BME280;10516;51.518;9.864;2023-03-01T12:56:54;99788.53;;;2.32;60.49
20710;BME280;10516;51.518;9.864;2023-03-01T13:11:44;99766.16;;;2.58;64.02
20710;BME280;10516;51.518;9.864;2023-03-01T13:16:51;99774.31;;;2.71;62.97
20710;BME280;10516;51.518;9.864;2023-03-01T13:19:17;99766.97;;;3.04;65.43
20710;BME280;10516;51.518;9.864;2023-03-01T13:21:44;99759.44;;;3.01;62.84
20710;BME280;10516;51.518;9.864;2023-03-01T13:29:43;99742.22;;;2.90;62.40
20710;BME280;10516;51.518;9.864;2023-03-01T13:34:44;99734.16;;;3.07;60.15
20710;BME280;10516;51.518;9.864;2023-03-01T13:37:13;99735.59;;;2.94;60.20
20710;BME280;10516;51.518;9.864;2023-03-01T13:39:43;99731.69;;;2.90;59.82
20710;BME280;10516;51.518;9.864;2023-03-01T13:42:30;99733.09;;;3.16;60.04
20710;BME280;10516;51.518;9.864;2023-03-01T13:44:56;99730.88;;;3.04;59.78
20710;BME280;10516;51.518;9.864;2023-03-01T13:47:21;99727.75;;;3.38;65.02
20710;BME280;10516;51.518;9.864;2023-03-01T13:54:56;99710.75;;;4.41;56.57
20710;BME280;10516;51.518;9.864;2023-03-01T13:57:24;99718.50;;;4.64;55.70
20710;BME280;10516;51.518;9.864;2023-03-01T13:59:51;99710.22;;;4.67;55.95
20710;BME280;10516;51.518;9.864;2023-03-01T14:02:16;99705.09;;;4.87;55.38
20710;BME280;10516;51.518;9.864;2023-03-01T14:04:41;99710.03;;;4.96;55.65
20710;BME280;10516;51.518;9.864;2023-03-01T14:07:20;99710.63;;;4.71;54.04
20710;BME280;10516;51.518;9.864;2023-03-01T14:09:51;99698.31;;;4.78;54.04
20710;BME280;10516;51.518;9.864;2023-03-01T14:15:04;99690.75;;;4.75;54.20
20710;BME280;10516;51.518;9.864;2023-03-01T14:17:38;99690.09;;;4.94;54.39
20710;BME280;10516;51.518;9.864;2023-03-01T14:20:14;99701.25;;;5.17;56.19
20710;BME280;10516;51.518;9.864;2023-03-01T14:22:41;99694.00;;;4.98;53.72
20710;BME280;10516;51.518;9.864;2023-03-01T14:25:24;99697.78;;;4.89;54.74
20710;BME280;10516;51.518;9.864;2023-03-01T14:27:51;99686.81;;;4.92;54.71
20710;BME280;10516;51.518;9.864;2023-03-01T14:30:19;99677.69;;;5.22;57.53
20710;BME280;10516;51.518;9.864;2023-03-01T14:32:54;99675.97;;;5.08;52.91
20710;BME280;10516;51.518;9.864;2023-03-01T14:35:23;99678.59;;;5.08;53.29
20710;BME280;10516;51.518;9.864;2023-03-01T14:37:49;99672.06;;;5.04;53.55
20710;BME280;10516;51.518;9.864;2023-03-01T14:42:46;99670.72;;;5.14;53.69